Time;durP1;ratioP1;P1;durP2;ratioP2;P2;SDS_P1;SDS_P2;PMS_P1;PMS_P2;Temp;Humidity;BMP_temperature;BMP_pressure;BME280_temperature;BME280_humidity;BME280_pressure;Samples;Min_cycle;Max_cycle;Signal;HPM_P1;HPM_P2
2022/04/18 00:01:43;;;;;;;;;;;21.50;27.80;;;;;;454364;262;1228;-73
2022/04/18 00:03:45;;;;;;;;;;;21.60;27.70;;;;;;454442;263;1064;-73
2022/04/18 00:05:46;;;;;;;;;;;21.80;27.50;;;;;;454468;262;1089;-73
2022/04/18 00:07:47;;;;;;;;;;;21.80;27.50;;;;;;454416;263;1235;-73
2022/04/18 00:09:48;;;;;;;;;;;21.90;27.40;;;;;;454421;263;1231;-73
2022/04/18 00:11:50;;;;;;;;;;;22.00;27.30;;;;;;454323;263;1135;-73
2022/04/18 00:13:51;;;;;;;;;;;22.10;27.30;;;;;;454332;263;1158;-73
2022/04/18 00:15:52;;;;;;;;;;;22.10;27.20;;;;;;454356;262;2208;-73
2022/04/18 00:17:54;;;;;;;;;;;22.10;27.20;;;;;;454305;262;1205;-73
2022/04/18 00:19:55;;;;;;;;;;;22.20;27.10;;;;;;454283;263;1065;-74
2022/04/18 00:21:57;;;;;;;;;;;22.10;27.20;;;;;;454345;263;1240;-74
2022/04/18 00:23:58;;;;;;;;;;;22.10;27.10;;;;;;454332;263;1204;-73
2022/04/18 00:25:59;;;;;;;;;;;21.90;27.30;;;;;;454296;263;1181;-73
2022/04/18 00:28:00;;;;;;;;;;;21.80;27.40;;;;;;454342;263;966;-73
2022/04/18 00:30:02;;;;;;;;;;;21.80;27.50;;;;;;454471;262;1178;-73
2022/04/18 00:32:03;;;;;;;;;;;21.70;27.50;;;;;;454357;263;1446;-73
2022/04/18 00:34:04;;;;;;;;;;;21.60;27.50;;;;;;454465;263;971;-73
2022/04/18 00:36:06;;;;;;;;;;;21.50;27.60;;;;;;454372;263;2130;-73
2022/04/18 00:38:07;;;;;;;;;;;21.40;27.70;;;;;;454417;263;1100;-73
2022/04/18 00:40:11;;;;;;;;;;;21.40;27.70;;;;;;454437;262;1130;-73
2022/04/18 00:42:10;;;;;;;;;;;21.30;27.80;;;;;;454323;263;1488;-73
2022/04/18 00:44:11;;;;;;;;;;;21.30;27.90;;;;;;454490;263;1184;-73
2022/04/18 00:46:13;;;;;;;;;;;21.20;27.90;;;;;;454443;262;1160;-73
2022/04/18 00:48:14;;;;;;;;;;;21.30;27.80;;;;;;454475;263;949;-73
2022/04/18 00:50:15;;;;;;;;;;;21.30;27.90;;;;;;454539;262;986;-73
2022/04/18 00:52:16;;;;;;;;;;;21.30;27.90;;;;;;454444;263;1281;-73
2022/04/18 00:54:18;;;;;;;;;;;21.20;27.80;;;;;;454456;263;1051;-73
2022/04/18 00:56:19;;;;;;;;;;;21.20;27.80;;;;;;454458;262;2117;-73
2022/04/18 00:58:21;;;;;;;;;;;21.20;27.90;;;;;;454414;263;1102;-73
2022/04/18 01:00:22;;;;;;;;;;;21.20;27.90;;;;;;454471;262;1139;-73
2022/04/18 01:02:23;;;;;;;;;;;21.20;27.90;;;;;;454391;263;1235;-73
2022/04/18 01:04:25;;;;;;;;;;;21.30;27.80;;;;;;454427;262;1045;-73
2022/04/18 01:06:26;;;;;;;;;;;21.20;27.80;;;;;;454361;262;1228;-73
2022/04/18 01:08:27;;;;;;;;;;;21.30;27.70;;;;;;454483;262;1237;-73
2022/04/18 01:10:28;;;;;;;;;;;21.30;27.80;;;;;;454460;263;977;-73
2022/04/18 01:12:30;;;;;;;;;;;21.20;27.90;;;;;;454379;263;1158;-73
2022/04/18 01:14:31;;;;;;;;;;;21.20;27.80;;;;;;454455;263;1346;-73
2022/04/18 01:16:32;;;;;;;;;;;21.20;27.80;;;;;;454351;263;2141;-74
2022/04/18 01:18:34;;;;;;;;;;;21.20;27.90;;;;;;454446;262;993;-74
2022/04/18 01:20:35;;;;;;;;;;;21.30;27.80;;;;;;454430;263;1133;-73
2022/04/18 01:22:36;;;;;;;;;;;21.30;27.80;;;;;;454456;262;1085;-74
2022/04/18 01:29:23;;;;;;;;;;;21.10;27.80;;;;;;443964;262;1285;-73
2022/04/18 01:31:25;;;;;;;;;;;21.20;27.90;;;;;;454395;263;1281;-74
2022/04/18 01:33:26;;;;;;;;;;;21.20;27.80;;;;;;454414;263;1263;-73
2022/04/18 01:35:27;;;;;;;;;;;21.40;27.70;;;;;;454402;262;2204;-73
2022/04/18 01:37:29;;;;;;;;;;;21.40;27.70;;;;;;454410;263;1227;-73
2022/04/18 01:39:30;;;;;;;;;;;21.50;27.60;;;;;;454434;263;1046;-73
2022/04/18 01:41:31;;;;;;;;;;;21.60;27.40;;;;;;454402;263;1264;-73
2022/04/18 01:43:33;;;;;;;;;;;21.80;27.30;;;;;;454431;262;1254;-73
2022/04/18 01:45:35;;;;;;;;;;;22.00;27.20;;;;;;454396;263;1139;-73
2022/04/18 01:47:36;;;;;;;;;;;22.10;27.10;;;;;;454342;263;1126;-73
2022/04/18 01:49:38;;;;;;;;;;;22.30;26.90;;;;;;454404;263;993;-73
2022/04/18 01:51:39;;;;;;;;;;;22.30;26.90;;;;;;454493;262;1317;-74
2022/04/18 01:53:40;;;;;;;;;;;22.40;26.70;;;;;;454356;263;1168;-73
2022/04/18 01:55:42;;;;;;;;;;;22.60;26.70;;;;;;454332;263;2125;-73
2022/04/18 01:57:43;;;;;;;;;;;22.60;26.60;;;;;;454401;262;1212;-73
2022/04/18 01:59:44;;;;;;;;;;;22.80;26.50;;;;;;454311;262;1164;-74
2022/04/18 02:01:46;;;;;;;;;;;22.80;26.40;;;;;;454185;263;1226;-74
2022/04/18 02:03:47;;;;;;;;;;;22.80;26.40;;;;;;454261;262;990;-73
2022/04/18 02:05:50;;;;;;;;;;;22.90;26.30;;;;;;454269;263;1204;-73
2022/04/18 02:07:49;;;;;;;;;;;22.80;26.30;;;;;;454157;263;1495;-73
2022/04/18 02:09:51;;;;;;;;;;;22.70;26.40;;;;;;454304;263;982;-73
2022/04/18 02:11:52;;;;;;;;;;;22.60;26.40;;;;;;454300;262;1349;-73
2022/04/18 02:13:54;;;;;;;;;;;22.50;26.60;;;;;;454345;263;1070;-73
2022/04/18 02:15:57;;;;;;;;;;;22.40;26.70;;;;;;454400;262;2169;-73
2022/04/18 02:17:57;;;;;;;;;;;22.30;26.70;;;;;;454371;263;1435;-73
2022/04/18 02:19:58;;;;;;;;;;;22.10;26.80;;;;;;454392;263;1067;-73
2022/04/18 02:22:00;;;;;;;;;;;22.20;26.80;;;;;;454395;263;967;-73
2022/04/18 02:24:01;;;;;;;;;;;22.20;26.80;;;;;;454480;263;1551;-73
2022/04/18 02:26:02;;;;;;;;;;;22.10;26.90;;;;;;454438;262;1362;-74
2022/04/18 02:28:04;;;;;;;;;;;22.00;26.90;;;;;;454408;263;1123;-73
2022/04/18 02:30:05;;;;;;;;;;;22.10;26.90;;;;;;454506;263;1233;-73
2022/04/18 02:34:26;;;;;;;;;;;22.00;26.90;;;;;;454436;261;1015;-73
2022/04/18 02:36:27;;;;;;;;;;;22.00;26.90;;;;;;454440;263;2204;-73
2022/04/18 02:38:28;;;;;;;;;;;21.90;26.90;;;;;;454490;262;1213;-73
2022/04/18 02:40:30;;;;;;;;;;;22.00;27.00;;;;;;454447;263;1159;-73
2022/04/18 02:42:31;;;;;;;;;;;21.90;27.00;;;;;;454406;263;1212;-73
2022/04/18 02:44:32;;;;;;;;;;;21.90;27.10;;;;;;454459;262;1317;-74
2022/04/18 02:46:34;;;;;;;;;;;21.90;27.00;;;;;;454390;263;1225;-73
2022/04/18 02:48:37;;;;;;;;;;;21.90;27.00;;;;;;454415;263;1230;-73
2022/04/18 02:50:36;;;;;;;;;;;21.90;26.90;;;;;;454322;263;1486;-73
2022/04/18 02:52:38;;;;;;;;;;;22.00;26.90;;;;;;454383;263;1256;-73
2022/04/18 02:54:39;;;;;;;;;;;22.00;26.90;;;;;;454418;262;984;-73
2022/04/18 02:56:40;;;;;;;;;;;22.00;27.00;;;;;;454384;263;2216;-73
2022/04/18 02:58:42;;;;;;;;;;;21.90;27.00;;;;;;454471;262;965;-73
2022/04/18 03:00:43;;;;;;;;;;;22.00;27.00;;;;;;454441;263;1131;-73
2022/04/18 03:02:44;;;;;;;;;;;22.00;26.90;;;;;;454434;262;1185;-73
2022/04/18 03:04:46;;;;;;;;;;;22.00;27.00;;;;;;454410;263;956;-73
2022/04/18 03:06:47;;;;;;;;;;;21.80;27.00;;;;;;454405;263;969;-73
2022/04/18 03:08:48;;;;;;;;;;;21.90;27.00;;;;;;454450;262;973;-73
2022/04/18 03:11:05;;;;;;;;;;;21.90;26.90;;;;;;454429;263;1021;-73
2022/04/18 03:13:06;;;;;;;;;;;21.90;27.00;;;;;;454515;262;994;-73
2022/04/18 03:15:08;;;;;;;;;;;21.90;27.00;;;;;;454460;263;1079;-73
2022/04/18 03:17:09;;;;;;;;;;;21.90;27.00;;;;;;454395;263;2212;-73
2022/04/18 03:19:11;;;;;;;;;;;21.90;26.90;;;;;;454424;263;1048;-73
2022/04/18 03:21:12;;;;;;;;;;;21.90;27.00;;;;;;454394;263;1266;-73
2022/04/18 03:23:13;;;;;;;;;;;22.00;26.90;;;;;;454503;262;1036;-73
2022/04/18 03:25:15;;;;;;;;;;;21.90;27.00;;;;;;454520;262;979;-73
2022/04/18 03:27:16;;;;;;;;;;;21.90;27.00;;;;;;454396;263;1113;-73
2022/04/18 03:29:18;;;;;;;;;;;21.90;26.90;;;;;;454459;262;1069;-73
2022/04/18 03:31:19;;;;;;;;;;;21.90;26.80;;;;;;454383;263;1341;-73
2022/04/18 03:33:20;;;;;;;;;;;22.10;26.70;;;;;;454418;263;1037;-73
2022/04/18 03:35:22;;;;;;;;;;;22.20;26.60;;;;;;454403;262;1309;-74
2022/04/18 03:39:54;;;;;;;;;;;22.50;26.60;;;;;;454380;261;1028;-73
2022/04/18 03:41:53;;;;;;;;;;;22.60;26.40;;;;;;454235;263;1427;-73
2022/04/18 03:43:55;;;;;;;;;;;22.70;26.30;;;;;;454420;262;1021;-73
2022/04/18 03:45:57;;;;;;;;;;;22.80;26.20;;;;;;454384;263;1133;-74
2022/04/18 03:47:57;;;;;;;;;;;22.90;26.10;;;;;;454296;263;1435;-73
2022/04/18 03:49:59;;;;;;;;;;;22.90;26.10;;;;;;454385;263;985;-73
2022/04/18 03:52:00;;;;;;;;;;;22.90;26.10;;;;;;454352;263;1123;-74
2022/04/18 03:54:01;;;;;;;;;;;22.90;26.10;;;;;;454369;262;944;-74
2022/04/18 03:56:03;;;;;;;;;;;23.00;26.10;;;;;;454373;262;2200;-73
2022/04/18 03:58:04;;;;;;;;;;;22.90;26.10;;;;;;454366;262;979;-73
2022/04/18 04:00:06;;;;;;;;;;;22.70;26.20;;;;;;454400;263;1082;-73
2022/04/18 04:02:07;;;;;;;;;;;22.60;26.30;;;;;;454436;262;1318;-73
2022/04/18 04:04:08;;;;;;;;;;;22.60;26.30;;;;;;454375;262;986;-73
2022/04/18 04:06:09;;;;;;;;;;;22.40;26.40;;;;;;454372;263;1370;-73
2022/04/18 04:08:11;;;;;;;;;;;22.40;26.50;;;;;;454356;263;981;-73
2022/04/18 04:10:12;;;;;;;;;;;22.30;26.60;;;;;;454475;262;1004;-73
2022/04/18 04:12:13;;;;;;;;;;;22.20;26.60;;;;;;454410;263;1029;-73
2022/04/18 04:14:15;;;;;;;;;;;22.10;26.70;;;;;;454466;262;995;-73
2022/04/18 04:16:16;;;;;;;;;;;22.00;26.80;;;;;;454392;263;2184;-73
2022/04/18 04:18:17;;;;;;;;;;;22.00;26.80;;;;;;454340;262;1121;-74
2022/04/18 04:20:19;;;;;;;;;;;22.00;26.70;;;;;;454293;263;1046;-73
2022/04/18 04:22:20;;;;;;;;;;;22.00;26.80;;;;;;454272;263;1414;-73
2022/04/18 04:24:21;;;;;;;;;;;21.90;26.80;;;;;;454351;262;1391;-73
2022/04/18 04:26:22;;;;;;;;;;;22.10;26.70;;;;;;454279;262;1273;-73
2022/04/18 04:28:24;;;;;;;;;;;22.00;26.70;;;;;;454347;262;1130;-73
2022/04/18 04:30:25;;;;;;;;;;;22.00;26.70;;;;;;454391;262;1058;-74
2022/04/18 04:32:26;;;;;;;;;;;22.00;26.70;;;;;;454296;263;1181;-73
2022/04/18 04:34:28;;;;;;;;;;;22.00;26.70;;;;;;454316;263;1096;-73
2022/04/18 04:36:29;;;;;;;;;;;21.90;26.80;;;;;;454328;263;2149;-73
2022/04/18 04:38:30;;;;;;;;;;;22.00;26.80;;;;;;454508;262;1130;-73
2022/04/18 04:40:32;;;;;;;;;;;22.10;26.60;;;;;;454441;263;1000;-73
2022/04/18 04:42:33;;;;;;;;;;;22.00;26.70;;;;;;454369;263;1393;-74
2022/04/18 04:44:34;;;;;;;;;;;21.90;26.80;;;;;;454421;262;1019;-73
2022/04/18 04:46:36;;;;;;;;;;;22.00;26.70;;;;;;454379;263;1170;-73
2022/04/18 04:48:37;;;;;;;;;;;21.90;26.70;;;;;;454440;262;1241;-73
2022/04/18 04:50:40;;;;;;;;;;;21.90;26.80;;;;;;454450;263;1170;-73
2022/04/18 04:52:40;;;;;;;;;;;21.90;26.70;;;;;;454289;263;1471;-73
2022/04/18 04:54:41;;;;;;;;;;;22.10;26.60;;;;;;454407;263;1204;-73
2022/04/18 04:56:43;;;;;;;;;;;22.00;26.70;;;;;;454359;263;2192;-73
2022/04/18 04:58:44;;;;;;;;;;;21.90;26.70;;;;;;454507;262;1218;-73
2022/04/18 05:00:45;;;;;;;;;;;22.00;26.80;;;;;;454462;263;1590;-73
2022/04/18 05:02:47;;;;;;;;;;;21.90;26.70;;;;;;454474;262;1141;-73
2022/04/18 05:04:48;;;;;;;;;;;22.00;26.70;;;;;;454480;263;1144;-73
2022/04/18 05:06:49;;;;;;;;;;;22.00;26.70;;;;;;454561;262;1253;-73
2022/04/18 05:08:51;;;;;;;;;;;22.00;26.70;;;;;;454481;263;975;-73
2022/04/18 05:10:54;;;;;;;;;;;21.90;26.80;;;;;;454418;263;1368;-73
2022/04/18 05:12:54;;;;;;;;;;;22.00;26.70;;;;;;454399;263;1593;-73
2022/04/18 05:14:56;;;;;;;;;;;22.00;26.60;;;;;;454504;262;985;-73
2022/04/18 05:16:57;;;;;;;;;;;22.20;26.60;;;;;;454466;263;2204;-73
2022/04/18 05:18:58;;;;;;;;;;;22.30;26.50;;;;;;454441;262;1195;-73
2022/04/18 05:21:00;;;;;;;;;;;22.30;26.50;;;;;;454397;263;1351;-73
2022/04/18 05:23:01;;;;;;;;;;;22.40;26.40;;;;;;454400;262;960;-73
2022/04/18 05:25:03;;;;;;;;;;;22.50;26.30;;;;;;454382;263;958;-73
2022/04/18 05:27:04;;;;;;;;;;;22.60;26.30;;;;;;454363;262;991;-73
2022/04/18 05:29:05;;;;;;;;;;;22.70;26.20;;;;;;454378;263;1111;-73
2022/04/18 05:31:07;;;;;;;;;;;22.60;26.20;;;;;;454368;263;967;-73
2022/04/18 05:33:08;;;;;;;;;;;22.70;26.10;;;;;;454303;263;1329;-73
2022/04/18 05:35:09;;;;;;;;;;;22.60;26.10;;;;;;454358;262;967;-73
2022/04/18 05:37:11;;;;;;;;;;;22.70;26.20;;;;;;454294;263;2208;-73
2022/04/18 05:39:12;;;;;;;;;;;22.60;26.20;;;;;;454370;262;1058;-73
2022/04/18 05:41:13;;;;;;;;;;;22.60;26.20;;;;;;454309;262;1072;-73
2022/04/18 05:43:15;;;;;;;;;;;22.70;26.20;;;;;;454277;263;978;-73
2022/04/18 05:45:16;;;;;;;;;;;22.50;26.30;;;;;;454363;262;1072;-73
2022/04/18 05:47:17;;;;;;;;;;;22.40;26.40;;;;;;454326;263;1048;-73
2022/04/18 05:49:19;;;;;;;;;;;22.30;26.50;;;;;;454456;263;1196;-74
2022/04/18 05:51:20;;;;;;;;;;;22.20;26.60;;;;;;454316;263;1058;-73
2022/04/18 05:53:21;;;;;;;;;;;22.00;26.70;;;;;;454339;263;968;-73
2022/04/18 05:55:23;;;;;;;;;;;22.00;26.80;;;;;;454333;263;962;-73
2022/04/18 05:57:24;;;;;;;;;;;21.90;26.80;;;;;;454274;262;2200;-73
2022/04/18 05:59:25;;;;;;;;;;;21.90;26.90;;;;;;454290;263;989;-73
2022/04/18 06:01:28;;;;;;;;;;;21.70;27.00;;;;;;454250;262;958;-73
2022/04/18 06:03:28;;;;;;;;;;;21.80;27.00;;;;;;454234;262;1431;-73
2022/04/18 06:05:30;;;;;;;;;;;21.70;27.00;;;;;;454326;262;1086;-73
2022/04/18 06:07:31;;;;;;;;;;;21.70;26.90;;;;;;454258;263;1100;-73
2022/04/18 06:09:32;;;;;;;;;;;21.70;27.00;;;;;;454312;263;1009;-74
2022/04/18 06:11:34;;;;;;;;;;;21.70;27.10;;;;;;454270;263;1105;-74
2022/04/18 06:13:35;;;;;;;;;;;21.70;27.00;;;;;;454323;262;1009;-76
2022/04/18 06:15:36;;;;;;;;;;;21.60;27.10;;;;;;454398;262;1145;-76
2022/04/18 06:17:38;;;;;;;;;;;21.60;27.10;;;;;;454332;263;2216;-76
2022/04/18 06:19:39;;;;;;;;;;;21.70;27.10;;;;;;454396;262;1189;-76
2022/04/18 06:21:40;;;;;;;;;;;21.60;27.10;;;;;;454364;262;1159;-76
2022/04/18 06:23:42;;;;;;;;;;;21.60;27.10;;;;;;454459;263;984;-76
2022/04/18 06:25:43;;;;;;;;;;;21.70;27.10;;;;;;454386;258;1201;-76
2022/04/18 06:27:44;;;;;;;;;;;21.70;27.10;;;;;;454418;263;1226;-76
2022/04/18 06:29:46;;;;;;;;;;;21.60;27.10;;;;;;454580;262;1388;-76
2022/04/18 06:31:49;;;;;;;;;;;21.70;27.10;;;;;;454350;263;1253;-76
2022/04/18 06:33:48;;;;;;;;;;;21.60;27.20;;;;;;454331;263;1458;-76
2022/04/18 06:35:50;;;;;;;;;;;21.40;27.20;;;;;;454361;262;1211;-76
2022/04/18 06:37:51;;;;;;;;;;;21.50;27.30;;;;;;454350;263;2212;-76
2022/04/18 06:39:52;;;;;;;;;;;21.40;27.30;;;;;;454411;263;1083;-76
2022/04/18 06:41:55;;;;;;;;;;;21.50;27.20;;;;;;454378;263;1255;-76
2022/04/18 06:43:56;;;;;;;;;;;21.50;27.20;;;;;;454521;262;1128;-76
2022/04/18 06:45:57;;;;;;;;;;;21.50;27.30;;;;;;454317;263;1235;-76
2022/04/18 06:47:59;;;;;;;;;;;21.60;27.30;;;;;;454374;262;1064;-76
2022/04/18 06:50:00;;;;;;;;;;;21.60;27.20;;;;;;454419;263;1185;-76
2022/04/18 06:52:01;;;;;;;;;;;21.60;27.30;;;;;;454322;263;1342;-76
2022/04/18 06:54:03;;;;;;;;;;;21.50;27.30;;;;;;454366;262;1196;-76
2022/04/18 06:58:24;;;;;;;;;;;21.50;27.30;;;;;;454312;261;2129;-76
2022/04/18 07:00:25;;;;;;;;;;;21.60;27.40;;;;;;454282;263;1051;-76
2022/04/18 07:02:26;;;;;;;;;;;21.60;27.40;;;;;;454206;263;1231;-76
2022/04/18 07:04:27;;;;;;;;;;;21.70;27.30;;;;;;454340;262;1189;-76
2022/04/18 07:06:29;;;;;;;;;;;21.90;27.20;;;;;;454305;262;1298;-76
2022/04/18 07:08:30;;;;;;;;;;;21.90;27.10;;;;;;454264;263;1199;-76
2022/04/18 07:10:31;;;;;;;;;;;22.10;26.90;;;;;;454260;263;1096;-76
2022/04/18 07:12:33;;;;;;;;;;;22.20;26.90;;;;;;454190;263;1158;-76
2022/04/18 07:14:34;;;;;;;;;;;22.30;26.90;;;;;;454278;262;1017;-76
2022/04/18 07:16:35;;;;;;;;;;;22.40;26.80;;;;;;454195;263;1221;-76
2022/04/18 07:18:37;;;;;;;;;;;22.40;26.70;;;;;;454234;262;2200;-76
2022/04/18 07:20:41;;;;;;;;;;;22.60;26.80;;;;;;454297;262;1172;-76
2022/04/18 07:22:39;;;;;;;;;;;22.60;26.70;;;;;;454009;263;1474;-76
2022/04/18 07:24:41;;;;;;;;;;;22.70;26.70;;;;;;454251;262;977;-76
2022/04/18 07:26:42;;;;;;;;;;;22.60;26.70;;;;;;454205;263;1147;-76
2022/04/18 07:28:43;;;;;;;;;;;22.50;26.70;;;;;;454268;262;1079;-76
2022/04/18 07:30:45;;;;;;;;;;;22.50;26.80;;;;;;454239;263;1046;-76
2022/04/18 07:32:46;;;;;;;;;;;22.40;26.80;;;;;;454189;263;1120;-76
2022/04/18 07:34:47;;;;;;;;;;;22.30;26.90;;;;;;454207;263;1150;-76
2022/04/18 07:36:49;;;;;;;;;;;22.10;27.00;;;;;;454155;263;1139;-76
2022/04/18 07:38:50;;;;;;;;;;;22.10;27.10;;;;;;454263;263;2145;-76
2022/04/18 07:40:51;;;;;;;;;;;21.80;27.40;;;;;;454254;263;1035;-76
2022/04/18 07:42:53;;;;;;;;;;;21.90;27.40;;;;;;454233;263;1284;-76
2022/04/18 07:44:54;;;;;;;;;;;21.80;27.40;;;;;;454323;262;975;-76
2022/04/18 07:46:55;;;;;;;;;;;21.70;27.50;;;;;;454280;263;1180;-76
2022/04/18 07:48:57;;;;;;;;;;;21.70;27.40;;;;;;454271;263;1136;-76
2022/04/18 07:53:17;;;;;;;;;;;21.60;27.50;;;;;;454304;261;1055;-76
2022/04/18 07:55:19;;;;;;;;;;;21.60;27.50;;;;;;454436;262;996;-76
2022/04/18 07:57:20;;;;;;;;;;;21.60;27.40;;;;;;454271;262;1199;-76
2022/04/18 07:59:22;;;;;;;;;;;21.60;27.40;;;;;;454278;263;2202;-76
2022/04/18 08:01:23;;;;;;;;;;;21.70;27.40;;;;;;454222;263;1287;-76
2022/04/18 08:03:24;;;;;;;;;;;21.80;27.50;;;;;;454265;262;1074;-76
2022/04/18 08:05:26;;;;;;;;;;;21.60;27.50;;;;;;454293;262;1350;-76
2022/04/18 08:07:27;;;;;;;;;;;21.70;27.50;;;;;;454248;263;1192;-76
2022/04/18 08:09:29;;;;;;;;;;;21.80;27.30;;;;;;454341;262;1270;-76
2022/04/18 08:11:30;;;;;;;;;;;21.70;27.30;;;;;;454271;263;1162;-76
2022/04/18 08:13:31;;;;;;;;;;;21.80;27.30;;;;;;454313;262;997;-76
2022/04/18 08:15:32;;;;;;;;;;;21.90;27.20;;;;;;454305;263;1190;-76
2022/04/18 08:17:34;;;;;;;;;;;21.80;27.20;;;;;;454245;263;2220;-76
2022/04/18 08:19:35;;;;;;;;;;;21.60;27.20;;;;;;454305;263;1235;-76
2022/04/18 08:21:37;;;;;;;;;;;21.60;27.20;;;;;;454334;263;1255;-76
2022/04/18 08:23:38;;;;;;;;;;;21.70;27.20;;;;;;454300;263;1069;-76
2022/04/18 08:25:39;;;;;;;;;;;21.60;27.30;;;;;;454257;262;1274;-76
2022/04/18 08:27:40;;;;;;;;;;;21.50;27.40;;;;;;454272;263;1240;-76
2022/04/18 08:29:42;;;;;;;;;;;21.60;27.30;;;;;;454342;262;996;-76
2022/04/18 08:31:43;;;;;;;;;;;21.50;27.20;;;;;;454200;263;1235;-76
2022/04/18 08:33:45;;;;;;;;;;;21.60;27.30;;;;;;454266;262;957;-76
2022/04/18 08:35:46;;;;;;;;;;;21.50;27.30;;;;;;454277;263;1204;-76
2022/04/18 08:37:48;;;;;;;;;;;21.60;27.30;;;;;;454271;262;2208;-76
2022/04/18 08:39:49;;;;;;;;;;;21.50;27.20;;;;;;454259;262;997;-76
2022/04/18 08:41:51;;;;;;;;;;;21.60;27.10;;;;;;454272;263;1253;-76
2022/04/18 08:43:52;;;;;;;;;;;21.60;27.10;;;;;;454247;263;1290;-76
2022/04/18 08:45:53;;;;;;;;;;;21.70;27.00;;;;;;454199;263;1229;-76
2022/04/18 08:52:45;;;;;;;;;;;21.70;27.10;;;;;;454267;261;1113;-76
2022/04/18 08:54:47;;;;;;;;;;;21.50;27.10;;;;;;454306;263;1009;-76
2022/04/18 08:56:48;;;;;;;;;;;21.30;27.10;;;;;;454220;262;1151;-76
2022/04/18 08:58:49;;;;;;;;;;;21.40;27.20;;;;;;454284;262;2207;-76
2022/04/18 09:00:50;;;;;;;;;;;21.50;27.10;;;;;;454335;263;1230;-76
2022/04/18 09:02:52;;;;;;;;;;;21.50;27.20;;;;;;454343;262;1259;-76
2022/04/18 09:04:53;;;;;;;;;;;21.30;27.20;;;;;;454212;263;1108;-76
2022/04/18 09:06:54;;;;;;;;;;;21.40;27.20;;;;;;454170;263;1315;-76
2022/04/18 09:08:56;;;;;;;;;;;21.40;27.10;;;;;;454227;263;1061;-75
2022/04/18 09:10:57;;;;;;;;;;;21.40;27.10;;;;;;454191;263;1226;-76
2022/04/18 09:12:58;;;;;;;;;;;21.30;27.10;;;;;;454258;263;1096;-76
2022/04/18 09:15:00;;;;;;;;;;;21.50;27.10;;;;;;454251;262;1009;-76
2022/04/18 09:17:01;;;;;;;;;;;21.50;27.00;;;;;;454163;263;1247;-76
2022/04/18 09:19:05;;;;;;;;;;;21.50;27.00;;;;;;454220;262;2137;-76
2022/04/18 09:21:04;;;;;;;;;;;21.30;27.10;;;;;;454171;263;1275;-76
2022/04/18 09:23:05;;;;;;;;;;;21.40;27.20;;;;;;454263;262;1090;-76
2022/04/18 09:25:07;;;;;;;;;;;21.30;27.20;;;;;;454254;263;1023;-76
2022/04/18 09:27:08;;;;;;;;;;;21.40;27.10;;;;;;454225;262;992;-76
2022/04/18 09:29:09;;;;;;;;;;;21.50;27.00;;;;;;454217;263;1027;-76
2022/04/18 09:31:10;;;;;;;;;;;21.40;27.10;;;;;;454181;262;1121;-76
2022/04/18 09:33:12;;;;;;;;;;;21.50;27.10;;;;;;454176;262;1128;-76
2022/04/18 09:35:13;;;;;;;;;;;21.30;27.10;;;;;;454206;262;1045;-76
2022/04/18 09:37:15;;;;;;;;;;;21.40;27.00;;;;;;454139;263;1335;-76
2022/04/18 09:39:16;;;;;;;;;;;21.40;27.00;;;;;;454230;262;2212;-76
2022/04/18 09:41:17;;;;;;;;;;;21.40;27.10;;;;;;454173;263;968;-76
2022/04/18 09:43:18;;;;;;;;;;;21.40;27.10;;;;;;454221;263;1080;-76
2022/04/18 09:45:20;;;;;;;;;;;21.30;27.00;;;;;;454240;262;1001;-76
2022/04/18 09:47:21;;;;;;;;;;;21.50;26.90;;;;;;454200;262;1387;-76
2022/04/18 09:49:23;;;;;;;;;;;21.40;26.90;;;;;;454174;263;1010;-76
2022/04/18 09:51:24;;;;;;;;;;;21.40;26.90;;;;;;454149;262;1166;-76
2022/04/18 09:53:26;;;;;;;;;;;21.30;26.90;;;;;;454241;262;1015;-76
2022/04/18 09:55:26;;;;;;;;;;;21.30;26.80;;;;;;454219;263;1196;-76
2022/04/18 09:57:28;;;;;;;;;;;21.30;26.80;;;;;;454212;262;1239;-76
2022/04/18 09:59:30;;;;;;;;;;;21.30;26.70;;;;;;454247;263;2217;-76
2022/04/18 10:01:32;;;;;;;;;;;21.30;26.80;;;;;;454260;263;1406;-76
2022/04/18 10:03:32;;;;;;;;;;;21.30;26.90;;;;;;454239;263;1354;-76
2022/04/18 10:05:33;;;;;;;;;;;21.30;26.80;;;;;;454226;262;1070;-76
2022/04/18 10:07:34;;;;;;;;;;;21.50;26.60;;;;;;454167;263;1172;-76
2022/04/18 10:09:36;;;;;;;;;;;21.70;26.50;;;;;;454223;262;963;-76
2022/04/18 10:11:37;;;;;;;;;;;21.80;26.40;;;;;;454219;263;1061;-76
2022/04/18 10:13:38;;;;;;;;;;;22.00;26.30;;;;;;454195;263;1067;-76
2022/04/18 10:15:40;;;;;;;;;;;22.10;26.10;;;;;;454185;263;1179;-76
2022/04/18 10:17:41;;;;;;;;;;;22.20;26.10;;;;;;454189;263;1125;-76
2022/04/18 10:19:43;;;;;;;;;;;22.30;26.00;;;;;;454246;263;2168;-76
2022/04/18 10:21:44;;;;;;;;;;;22.40;25.90;;;;;;454199;263;1191;-76
2022/04/18 10:23:45;;;;;;;;;;;22.40;25.90;;;;;;454267;263;1098;-76
2022/04/18 10:25:47;;;;;;;;;;;22.50;25.80;;;;;;454253;263;1138;-76
2022/04/18 10:27:48;;;;;;;;;;;22.60;25.80;;;;;;454310;262;1231;-76
2022/04/18 10:29:50;;;;;;;;;;;22.60;25.70;;;;;;454356;263;1291;-76
2022/04/18 10:31:52;;;;;;;;;;;22.60;25.70;;;;;;454193;263;1380;-76
2022/04/18 10:33:52;;;;;;;;;;;22.60;25.70;;;;;;454218;263;1589;-76
2022/04/18 10:35:54;;;;;;;;;;;22.40;25.90;;;;;;454214;263;1102;-76
2022/04/18 10:37:55;;;;;;;;;;;22.20;26.00;;;;;;454274;262;1237;-76
2022/04/18 10:39:57;;;;;;;;;;;22.10;26.10;;;;;;454243;262;2205;-76
2022/04/18 10:41:59;;;;;;;;;;;22.00;26.10;;;;;;454168;262;1214;-76
2022/04/18 10:43:59;;;;;;;;;;;22.00;26.10;;;;;;454201;263;1405;-76
2022/04/18 10:46:01;;;;;;;;;;;21.80;26.30;;;;;;454178;263;1667;-76
2022/04/18 10:48:02;;;;;;;;;;;21.70;26.30;;;;;;454265;263;1148;-76
2022/04/18 10:50:03;;;;;;;;;;;21.70;26.30;;;;;;454214;263;1058;-76
2022/04/18 10:52:09;;;;;;;;;;;21.60;26.40;;;;;;454097;263;1148;-76
2022/04/18 10:54:07;;;;;;;;;;;21.70;26.40;;;;;;453970;263;1435;-76
2022/04/18 10:56:09;;;;;;;;;;;21.90;26.30;;;;;;454129;263;1156;-76
2022/04/18 10:58:11;;;;;;;;;;;21.90;26.20;;;;;;454271;263;1101;-76
2022/04/18 11:00:12;;;;;;;;;;;21.90;26.20;;;;;;454187;263;2196;-76
2022/04/18 11:02:13;;;;;;;;;;;21.70;26.20;;;;;;454141;263;1081;-76
2022/04/18 11:04:15;;;;;;;;;;;21.80;26.10;;;;;;454213;263;995;-76
2022/04/18 11:06:16;;;;;;;;;;;21.80;26.10;;;;;;454322;262;1184;-76
2022/04/18 11:08:17;;;;;;;;;;;21.80;26.10;;;;;;454199;263;1296;-76
2022/04/18 11:10:19;;;;;;;;;;;21.80;26.10;;;;;;454278;262;962;-76
2022/04/18 11:12:20;;;;;;;;;;;21.70;26.10;;;;;;454307;262;1003;-76
2022/04/18 11:14:21;;;;;;;;;;;21.80;26.00;;;;;;454248;263;995;-76
2022/04/18 11:16:23;;;;;;;;;;;21.90;26.00;;;;;;454241;262;1228;-76
2022/04/18 11:18:24;;;;;;;;;;;21.80;25.80;;;;;;454251;263;1031;-76
2022/04/18 11:20:26;;;;;;;;;;;21.80;25.90;;;;;;454295;262;2197;-76
2022/04/18 11:22:28;;;;;;;;;;;21.90;25.90;;;;;;454208;263;1154;-76
2022/04/18 11:24:29;;;;;;;;;;;21.90;25.80;;;;;;454368;263;1340;-76
2022/04/18 11:26:30;;;;;;;;;;;21.90;25.80;;;;;;454207;263;1172;-76
2022/04/18 11:28:31;;;;;;;;;;;21.90;25.80;;;;;;454253;262;1108;-76
2022/04/18 11:30:33;;;;;;;;;;;21.80;25.80;;;;;;454463;262;1279;-76
2022/04/18 11:32:34;;;;;;;;;;;21.80;25.80;;;;;;454272;262;1137;-76
2022/04/18 11:34:35;;;;;;;;;;;21.90;25.70;;;;;;454338;262;975;-76
2022/04/18 11:36:37;;;;;;;;;;;22.00;25.60;;;;;;454290;262;1224;-76
2022/04/18 11:38:38;;;;;;;;;;;22.00;25.60;;;;;;454280;262;1225;-76
2022/04/18 11:40:39;;;;;;;;;;;21.80;25.70;;;;;;454272;263;2208;-76
2022/04/18 11:42:41;;;;;;;;;;;21.90;25.60;;;;;;454326;262;1082;-76
2022/04/18 11:44:42;;;;;;;;;;;21.90;25.50;;;;;;454284;263;984;-76
2022/04/18 11:46:44;;;;;;;;;;;22.00;25.50;;;;;;454241;263;1243;-76
2022/04/18 11:48:45;;;;;;;;;;;21.90;25.50;;;;;;454321;263;1029;-76
2022/04/18 11:50:46;;;;;;;;;;;21.90;25.50;;;;;;454291;263;1259;-76
2022/04/18 11:52:48;;;;;;;;;;;21.90;25.50;;;;;;454287;262;1179;-76
2022/04/18 11:54:49;;;;;;;;;;;21.90;25.50;;;;;;454295;263;970;-76
2022/04/18 11:56:50;;;;;;;;;;;22.00;25.40;;;;;;454280;263;1323;-76
2022/04/18 11:58:52;;;;;;;;;;;22.00;25.50;;;;;;454244;263;2204;-75
2022/04/18 12:07:51;;;;;;;;;;;21.70;25.50;;;;;;454319;261;1157;-75
2022/04/18 12:09:52;;;;;;;;;;;21.80;25.40;;;;;;454236;263;1132;-76
2022/04/18 12:11:54;;;;;;;;;;;21.70;25.50;;;;;;454198;263;1165;-76
2022/04/18 12:13:55;;;;;;;;;;;21.90;25.50;;;;;;454302;262;1110;-76
2022/04/18 12:15:56;;;;;;;;;;;21.90;25.40;;;;;;454247;263;963;-76
2022/04/18 12:17:58;;;;;;;;;;;21.90;25.40;;;;;;454257;262;1249;-76
2022/04/18 12:19:59;;;;;;;;;;;21.90;25.40;;;;;;454260;262;2137;-76
2022/04/18 12:22:00;;;;;;;;;;;21.90;25.40;;;;;;454165;262;1292;-76
2022/04/18 12:24:02;;;;;;;;;;;21.80;25.40;;;;;;454291;262;1210;-76